createdAt,value
2022-07-25T00:01:56.920Z,19.64
2022-07-25T00:04:25.006Z,19.59
2022-07-25T00:06:52.417Z,19.54
2022-07-25T00:09:19.990Z,19.50
2022-07-25T00:11:47.265Z,19.45
2022-07-25T00:14:14.585Z,19.40
2022-07-25T00:16:42.159Z,19.39
2022-07-25T00:19:11.190Z,19.36
2022-07-25T00:21:38.492Z,19.36
2022-07-25T00:24:06.864Z,19.37
2022-07-25T00:26:39.432Z,19.37
2022-07-25T00:29:07.849Z,19.35
2022-07-25T00:31:35.577Z,19.33
2022-07-25T00:34:05.178Z,19.31
2022-07-25T00:36:33.040Z,19.29
2022-07-25T00:39:00.544Z,19.27
2022-07-25T00:41:27.895Z,19.28
2022-07-25T00:43:55.397Z,19.27
2022-07-25T00:46:22.928Z,19.25
2022-07-25T00:48:51.429Z,19.23
2022-07-25T00:51:19.161Z,19.23
2022-07-25T00:53:46.975Z,19.18
2022-07-25T00:56:15.666Z,19.17
2022-07-25T00:58:45.709Z,19.12
2022-07-25T01:01:13.189Z,19.07
2022-07-25T01:03:40.681Z,18.99
2022-07-25T01:06:09.368Z,18.92
2022-07-25T01:08:36.902Z,18.88
2022-07-25T01:11:04.363Z,18.87
2022-07-25T01:13:34.870Z,18.86
2022-07-25T01:16:02.445Z,18.79
2022-07-25T01:18:29.927Z,18.77
2022-07-25T01:20:58.159Z,18.75
2022-07-25T01:23:25.434Z,18.71
2022-07-25T01:25:52.918Z,18.68
2022-07-25T01:28:20.543Z,18.65
2022-07-25T01:30:47.932Z,18.64
2022-07-25T01:33:23.042Z,18.63
2022-07-25T01:35:51.097Z,18.65
2022-07-25T01:38:18.447Z,18.60
2022-07-25T01:40:45.854Z,18.66
2022-07-25T01:43:14.290Z,18.70
2022-07-25T01:45:42.072Z,18.69
2022-07-25T01:48:09.527Z,18.65
2022-07-25T01:50:37.236Z,18.65
2022-07-25T01:53:04.956Z,18.60
2022-07-25T01:55:32.361Z,18.61
2022-07-25T01:58:00.085Z,18.56
2022-07-25T02:00:28.396Z,18.50
2022-07-25T02:03:27.862Z,18.43
2022-07-25T02:05:55.424Z,18.43
2022-07-25T02:08:23.495Z,18.42
2022-07-25T02:10:50.863Z,18.40
2022-07-25T02:13:18.576Z,18.46
2022-07-25T02:15:46.109Z,18.46
2022-07-25T02:18:13.533Z,18.44
2022-07-25T02:20:41.061Z,18.46
2022-07-25T02:23:08.843Z,18.46
2022-07-25T02:25:36.492Z,18.39
2022-07-25T02:28:04.412Z,18.26
2022-07-25T02:30:31.900Z,18.21
2022-07-25T02:33:00.265Z,18.13
2022-07-25T02:35:28.004Z,18.06
2022-07-25T02:37:55.384Z,17.98
2022-07-25T02:40:22.769Z,17.93
2022-07-25T02:42:50.221Z,17.90
2022-07-25T02:45:18.137Z,17.84
2022-07-25T02:47:45.536Z,17.73
2022-07-25T02:50:14.763Z,17.67
2022-07-25T02:52:43.476Z,17.67
2022-07-25T02:55:11.926Z,17.65
2022-07-25T02:57:39.677Z,17.64
2022-07-25T03:00:08.554Z,17.63
2022-07-25T03:02:35.911Z,17.64
2022-07-25T03:05:11.732Z,17.64
2022-07-25T03:07:39.299Z,17.51
2022-07-25T03:10:11.067Z,17.50
2022-07-25T03:12:40.472Z,17.46
2022-07-25T03:15:10.366Z,17.46
2022-07-25T03:17:38.662Z,17.47
2022-07-25T03:20:08.045Z,17.50
2022-07-25T03:22:35.931Z,17.53
2022-07-25T03:25:03.969Z,17.57
2022-07-25T03:27:31.331Z,17.61
2022-07-25T03:29:58.830Z,17.67
2022-07-25T03:32:26.134Z,17.70
2022-07-25T03:34:53.430Z,17.77
2022-07-25T03:37:21.010Z,17.81
2022-07-25T03:39:48.553Z,17.85
2022-07-25T03:42:15.986Z,17.87
2022-07-25T03:44:43.548Z,17.81
2022-07-25T03:47:10.760Z,17.86
2022-07-25T03:49:48.187Z,17.94
2022-07-25T03:52:15.528Z,18.02
2022-07-25T03:54:42.890Z,18.03
2022-07-25T03:57:11.827Z,18.11
2022-07-25T03:59:39.473Z,18.14
2022-07-25T04:02:06.918Z,18.19
2022-07-25T04:04:34.487Z,18.19
2022-07-25T04:07:01.796Z,18.22
2022-07-25T04:09:33.459Z,18.29
2022-07-25T04:12:01.565Z,18.40
2022-07-25T04:14:28.944Z,18.51
2022-07-25T04:16:56.375Z,18.61
2022-07-25T04:19:23.963Z,18.74
2022-07-25T04:21:53.465Z,18.82
2022-07-25T04:24:20.721Z,18.93
2022-07-25T04:26:48.268Z,19.00
2022-07-25T04:29:15.875Z,19.07
2022-07-25T04:31:43.187Z,19.12
2022-07-25T04:34:10.734Z,19.20
2022-07-25T04:36:37.986Z,19.25
2022-07-25T04:39:05.398Z,19.32
2022-07-25T04:41:32.897Z,19.33
2022-07-25T04:44:00.267Z,19.38
2022-07-25T04:46:27.609Z,19.44
2022-07-25T04:48:55.138Z,19.50
2022-07-25T04:51:22.521Z,19.54
2022-07-25T04:53:50.927Z,19.59
2022-07-25T04:56:18.475Z,19.64
2022-07-25T04:58:45.850Z,19.69
2022-07-25T05:01:13.209Z,19.72
2022-07-25T05:03:41.143Z,19.77
2022-07-25T05:06:19.654Z,19.83
2022-07-25T05:08:47.441Z,19.91
2022-07-25T05:11:14.756Z,19.98
2022-07-25T05:13:42.056Z,20.05
2022-07-25T05:16:09.583Z,20.11
2022-07-25T05:18:36.870Z,20.19
2022-07-25T05:21:04.245Z,20.17
2022-07-25T05:23:31.803Z,20.25
2022-07-25T05:25:59.042Z,20.31
2022-07-25T05:28:26.380Z,20.36
2022-07-25T05:30:53.860Z,20.42
2022-07-25T05:33:21.208Z,20.47
2022-07-25T05:35:48.600Z,20.50
2022-07-25T05:38:16.649Z,20.57
2022-07-25T05:40:45.969Z,20.58
2022-07-25T05:43:13.270Z,20.65
2022-07-25T05:45:40.727Z,20.71
2022-07-25T05:48:07.981Z,20.68
2022-07-25T05:50:37.632Z,20.71
2022-07-25T05:53:05.218Z,20.74
2022-07-25T05:55:32.603Z,20.79
2022-07-25T05:58:00.138Z,20.88
2022-07-25T06:00:31.151Z,20.96
2022-07-25T06:03:00.638Z,20.93
2022-07-25T06:05:28.328Z,21.06
2022-07-25T06:07:56.140Z,21.13
2022-07-25T06:10:24.023Z,21.32
2022-07-25T06:12:51.493Z,21.44
2022-07-25T06:15:23.175Z,21.54
2022-07-25T06:17:54.819Z,21.66
2022-07-25T06:20:22.643Z,21.73
2022-07-25T06:22:50.284Z,21.79
2022-07-25T06:25:17.803Z,21.77
2022-07-25T06:27:45.553Z,21.90
2022-07-25T06:30:19.635Z,21.98
2022-07-25T06:32:49.801Z,22.12
2022-07-25T06:35:18.411Z,22.28
2022-07-25T06:37:46.929Z,22.38
2022-07-25T06:40:14.835Z,22.46
2022-07-25T06:42:47.787Z,22.60
2022-07-25T06:45:16.582Z,22.80
2022-07-25T06:47:45.413Z,23.01
2022-07-25T06:50:21.235Z,23.17
2022-07-25T06:52:49.367Z,23.36
2022-07-25T06:55:16.903Z,23.54
2022-07-25T06:57:44.301Z,23.67
2022-07-25T07:00:14.132Z,23.69
2022-07-25T07:03:01.646Z,23.84
2022-07-25T07:05:33.692Z,24.13
2022-07-25T07:08:01.751Z,24.24
2022-07-25T07:10:29.877Z,24.23
2022-07-25T07:13:24.714Z,24.31
2022-07-25T07:15:52.265Z,24.28
2022-07-25T07:18:21.705Z,24.41
2022-07-25T07:20:49.205Z,24.57
2022-07-25T07:23:17.954Z,24.63
2022-07-25T07:25:47.321Z,24.72
2022-07-25T07:28:16.292Z,24.82
2022-07-25T07:31:14.489Z,24.75
2022-07-25T07:33:32.952Z,24.94
2022-07-25T07:36:01.529Z,25.04
2022-07-25T07:38:28.901Z,25.12
2022-07-25T07:40:56.558Z,25.22
2022-07-25T07:43:29.378Z,25.35
2022-07-25T07:46:01.355Z,25.46
2022-07-25T07:48:31.162Z,25.57
2022-07-25T07:51:00.346Z,25.65
2022-07-25T07:53:46.818Z,25.80
2022-07-25T07:56:15.954Z,25.98
2022-07-25T07:58:43.575Z,26.08
2022-07-25T08:01:12.397Z,26.21
2022-07-25T08:03:39.931Z,26.28
2022-07-25T08:06:07.599Z,26.36
2022-07-25T08:08:34.901Z,26.42
2022-07-25T08:11:02.326Z,26.58
2022-07-25T08:13:34.059Z,26.67
2022-07-25T08:16:03.869Z,26.86
2022-07-25T08:18:32.998Z,26.88
2022-07-25T08:21:04.250Z,26.95
2022-07-25T08:23:33.143Z,27.20
2022-07-25T08:26:01.663Z,27.40
2022-07-25T08:28:29.366Z,27.64
2022-07-25T08:30:57.355Z,27.90
2022-07-25T08:33:26.235Z,28.08
2022-07-25T08:35:56.110Z,28.17
2022-07-25T08:38:26.134Z,28.42
2022-07-25T08:40:55.888Z,28.63
2022-07-25T08:43:23.553Z,28.84
2022-07-25T08:45:54.625Z,28.99
2022-07-25T08:48:26.466Z,29.20
2022-07-25T08:50:58.954Z,29.46
2022-07-25T08:53:35.613Z,29.71
2022-07-25T08:56:13.715Z,29.97
2022-07-25T08:58:44.462Z,30.12
2022-07-25T09:01:14.114Z,30.17
2022-07-25T09:03:43.625Z,30.46
2022-07-25T09:06:20.341Z,30.60
2022-07-25T09:09:00.750Z,30.71
2022-07-25T09:11:32.540Z,30.78
2022-07-25T09:14:15.361Z,30.47
2022-07-25T09:16:45.711Z,30.66
2022-07-25T09:19:19.961Z,30.68
2022-07-25T09:22:10.073Z,30.69
2022-07-25T09:24:45.792Z,30.81
2022-07-25T09:27:13.383Z,31.02
2022-07-25T09:29:45.127Z,31.20
2022-07-25T09:32:23.468Z,31.58
2022-07-25T09:34:56.895Z,32.66
2022-07-25T09:37:27.467Z,38.48
2022-07-25T09:39:54.907Z,45.54
2022-07-25T09:42:27.668Z,50.57
2022-07-25T09:45:14.685Z,53.71
2022-07-25T09:47:56.454Z,55.52
2022-07-25T09:50:26.426Z,57.89
2022-07-25T09:52:58.246Z,61.05
2022-07-25T09:55:25.619Z,63.40
2022-07-25T09:57:54.019Z,64.75
2022-07-25T10:00:27.700Z,65.55
2022-07-25T10:03:44.103Z,67.22
2022-07-25T10:06:49.752Z,67.57
2022-07-25T10:09:18.060Z,67.22
2022-07-25T10:12:06.899Z,67.53
2022-07-25T10:14:35.915Z,66.40
2022-07-25T10:17:04.399Z,66.26
2022-07-25T10:19:50.196Z,67.44
2022-07-25T10:22:39.723Z,69.01
2022-07-25T10:25:14.516Z,69.04
2022-07-25T10:27:49.656Z,69.60
2022-07-25T10:30:33.638Z,68.12
2022-07-25T10:33:04.697Z,68.48
2022-07-25T10:35:32.582Z,69.92
2022-07-25T10:38:04.313Z,69.92
2022-07-25T10:40:46.697Z,70.80
2022-07-25T10:43:20.690Z,69.78
2022-07-25T10:45:58.469Z,63.57
2022-07-25T10:48:27.765Z,57.51
2022-07-25T10:51:02.174Z,53.19
2022-07-25T10:53:49.115Z,50.06
2022-07-25T10:56:24.196Z,47.43
2022-07-25T10:58:58.623Z,45.32
2022-07-25T11:01:29.027Z,43.85
2022-07-25T11:04:02.791Z,42.43
2022-07-25T11:06:40.294Z,41.26
2022-07-25T11:09:28.743Z,40.42
2022-07-25T11:11:59.141Z,39.72
2022-07-25T11:14:33.221Z,38.55
2022-07-25T11:17:11.575Z,38.05
2022-07-25T11:19:38.983Z,37.65
2022-07-25T11:22:06.873Z,37.11
2022-07-25T11:24:44.809Z,36.59
2022-07-25T11:27:34.288Z,36.18
2022-07-25T11:30:21.047Z,35.98
2022-07-25T11:32:58.479Z,35.30
2022-07-25T11:35:32.522Z,35.14
2022-07-25T11:38:03.221Z,35.02
2022-07-25T11:40:32.824Z,34.94
2022-07-25T11:43:00.534Z,34.78
2022-07-25T11:45:33.143Z,34.85
2022-07-25T11:48:08.235Z,34.80
2022-07-25T11:50:41.162Z,34.83
2022-07-25T11:53:15.146Z,34.97
2022-07-25T11:55:44.554Z,35.12
2022-07-25T11:58:14.740Z,35.13
2022-07-25T12:00:50.195Z,34.82
2022-07-25T12:03:23.453Z,34.62
2022-07-25T12:05:50.995Z,34.52
2022-07-25T12:08:23.220Z,34.31
2022-07-25T12:10:55.306Z,34.24
2022-07-25T12:13:29.870Z,34.12
2022-07-25T12:15:59.875Z,34.04
2022-07-25T12:18:28.371Z,33.88
2022-07-25T12:20:55.785Z,33.91
2022-07-25T12:23:23.065Z,33.88
2022-07-25T12:25:50.994Z,33.96
2022-07-25T12:28:18.298Z,33.98
2022-07-25T12:30:50.502Z,33.75
2022-07-25T12:33:20.474Z,33.68
2022-07-25T12:35:47.787Z,33.68
2022-07-25T12:38:15.004Z,33.80
2022-07-25T12:40:42.452Z,33.73
2022-07-25T12:43:09.686Z,33.83
2022-07-25T12:45:37.130Z,33.79
2022-07-25T12:48:05.129Z,33.60
2022-07-25T12:50:32.419Z,33.80
2022-07-25T12:52:59.936Z,33.73
2022-07-25T12:55:27.895Z,33.60
2022-07-25T12:57:55.173Z,33.60
2022-07-25T13:00:24.453Z,33.69
2022-07-25T13:02:55.774Z,33.80
2022-07-25T13:05:25.633Z,33.81
2022-07-25T13:07:53.211Z,33.65
2022-07-25T13:10:20.725Z,33.64
2022-07-25T13:12:48.100Z,33.58
2022-07-25T13:15:15.778Z,33.56
2022-07-25T13:17:43.048Z,33.62
2022-07-25T13:20:11.332Z,33.64
2022-07-25T13:22:38.937Z,33.41
2022-07-25T13:25:06.901Z,33.28
2022-07-25T13:27:34.586Z,33.44
2022-07-25T13:30:02.132Z,33.43
2022-07-25T13:32:31.856Z,33.52
2022-07-25T13:34:59.150Z,33.59
2022-07-25T13:37:26.649Z,33.68
2022-07-25T13:39:53.852Z,33.73
2022-07-25T13:42:21.167Z,33.79
2022-07-25T13:44:48.641Z,33.76
2022-07-25T13:47:16.205Z,33.76
2022-07-25T13:49:43.450Z,33.76
2022-07-25T13:52:11.025Z,33.75
2022-07-25T13:54:38.385Z,33.80
2022-07-25T13:57:05.762Z,33.84
2022-07-25T13:59:33.306Z,33.85
2022-07-25T14:02:00.740Z,33.74
2022-07-25T14:04:28.112Z,33.76
2022-07-25T14:06:55.731Z,33.75
2022-07-25T14:09:24.080Z,33.71
2022-07-25T14:11:51.627Z,33.48
2022-07-25T14:14:19.204Z,33.33
2022-07-25T14:16:46.588Z,33.35
2022-07-25T14:19:13.871Z,33.35
2022-07-25T14:21:41.376Z,33.37
2022-07-25T14:24:09.085Z,33.45
2022-07-25T14:26:36.543Z,33.48
2022-07-25T14:29:04.914Z,33.48
2022-07-25T14:31:33.122Z,33.34
2022-07-25T14:34:00.394Z,33.34
2022-07-25T14:36:27.969Z,33.34
2022-07-25T14:38:55.246Z,33.29
2022-07-25T14:41:22.516Z,33.32
2022-07-25T14:43:49.974Z,33.29
2022-07-25T14:46:17.456Z,33.29
2022-07-25T14:48:44.896Z,33.33
2022-07-25T14:51:12.509Z,33.38
2022-07-25T14:53:39.778Z,33.34
2022-07-25T14:56:08.346Z,33.31
2022-07-25T14:58:36.275Z,33.22
2022-07-25T15:01:04.123Z,33.20
2022-07-25T15:03:31.495Z,33.21
2022-07-25T15:05:59.074Z,33.19
2022-07-25T15:08:26.475Z,33.19
2022-07-25T15:10:53.672Z,33.18
2022-07-25T15:13:31.161Z,33.15
2022-07-25T15:15:59.288Z,33.08
2022-07-25T15:18:26.864Z,33.07
2022-07-25T15:20:55.478Z,33.06
2022-07-25T15:23:25.835Z,33.08
2022-07-25T15:26:01.832Z,33.00
2022-07-25T15:28:34.066Z,33.00
2022-07-25T15:31:02.471Z,33.00
2022-07-25T15:33:29.867Z,33.00
2022-07-25T15:35:57.117Z,32.98
2022-07-25T15:38:24.730Z,32.94
2022-07-25T15:40:52.375Z,32.96
2022-07-25T15:43:19.915Z,32.90
2022-07-25T15:45:48.322Z,32.84
2022-07-25T15:48:17.131Z,32.79
2022-07-25T15:50:49.686Z,32.74
2022-07-25T15:53:17.888Z,32.73
2022-07-25T15:55:45.411Z,32.71
2022-07-25T15:58:13.096Z,32.63
2022-07-25T16:00:41.894Z,32.63
2022-07-25T16:03:10.532Z,32.62
2022-07-25T16:05:39.476Z,32.59
2022-07-25T16:08:08.550Z,32.57
2022-07-25T16:10:37.044Z,32.56
2022-07-25T16:13:04.972Z,32.51
2022-07-25T16:15:32.540Z,32.46
2022-07-25T16:18:02.629Z,32.33
2022-07-25T16:20:32.342Z,32.37
2022-07-25T16:23:01.179Z,32.37
2022-07-25T16:25:29.702Z,32.32
2022-07-25T16:27:57.818Z,32.28
2022-07-25T16:30:26.057Z,32.21
2022-07-25T16:32:53.686Z,32.14
2022-07-25T16:35:21.054Z,32.09
2022-07-25T16:37:48.520Z,32.06
2022-07-25T16:40:16.000Z,32.01
2022-07-25T16:42:43.640Z,31.96
2022-07-25T16:45:11.520Z,31.90
2022-07-25T16:47:41.012Z,31.83
2022-07-25T16:50:08.874Z,31.79
2022-07-25T16:52:36.276Z,31.71
2022-07-25T16:55:03.989Z,31.65
2022-07-25T16:57:32.626Z,31.67
2022-07-25T17:00:00.976Z,31.62
2022-07-25T17:02:29.930Z,31.60
2022-07-25T17:04:58.053Z,31.56
2022-07-25T17:07:26.385Z,31.51
2022-07-25T17:09:54.518Z,31.48
2022-07-25T17:12:22.486Z,31.41
2022-07-25T17:14:50.027Z,31.31
2022-07-25T17:17:17.467Z,31.20
2022-07-25T17:19:44.748Z,31.19
2022-07-25T17:22:12.287Z,31.16
2022-07-25T17:24:40.280Z,31.09
2022-07-25T17:27:09.324Z,30.96
2022-07-25T17:29:37.496Z,30.85
2022-07-25T17:32:08.389Z,30.75
2022-07-25T17:34:35.683Z,30.67
2022-07-25T17:37:03.458Z,30.61
2022-07-25T17:39:32.573Z,30.52
2022-07-25T17:42:00.274Z,30.41
2022-07-25T17:44:27.881Z,30.24
2022-07-25T17:46:55.249Z,30.19
2022-07-25T17:49:22.883Z,30.15
2022-07-25T17:51:50.626Z,30.17
2022-07-25T17:54:18.069Z,30.18
2022-07-25T17:56:45.691Z,30.10
2022-07-25T17:59:13.774Z,29.95
2022-07-25T18:01:41.184Z,29.83
2022-07-25T18:04:09.410Z,29.65
2022-07-25T18:06:38.289Z,29.53
2022-07-25T18:09:05.866Z,29.44
2022-07-25T18:11:33.277Z,29.30
2022-07-25T18:14:05.972Z,29.16
2022-07-25T18:16:33.742Z,28.99
2022-07-25T18:19:00.953Z,28.87
2022-07-25T18:21:28.445Z,28.78
2022-07-25T18:23:55.868Z,28.65
2022-07-25T18:26:23.959Z,28.53
2022-07-25T18:28:51.727Z,28.41
2022-07-25T18:31:20.518Z,28.31
2022-07-25T18:33:47.785Z,28.20
2022-07-25T18:36:16.457Z,28.10
2022-07-25T18:38:43.664Z,27.87
2022-07-25T18:43:58.774Z,27.51
2022-07-25T18:46:30.229Z,27.30
2022-07-25T18:48:58.790Z,27.18
2022-07-25T18:51:26.440Z,27.17
2022-07-25T18:53:53.821Z,27.13
2022-07-25T18:56:21.101Z,27.05
2022-07-25T18:58:48.712Z,26.99
2022-07-25T19:01:16.142Z,26.86
2022-07-25T19:03:43.465Z,26.82
2022-07-25T19:06:11.306Z,26.69
2022-07-25T19:08:38.781Z,26.62
2022-07-25T19:11:06.447Z,26.57
2022-07-25T19:13:51.192Z,26.58
2022-07-25T19:16:19.660Z,26.47
2022-07-25T19:18:47.824Z,26.45
2022-07-25T19:21:15.586Z,26.46
2022-07-25T19:23:49.698Z,26.43
2022-07-25T19:26:18.593Z,26.39
2022-07-25T19:28:46.055Z,26.33
2022-07-25T19:31:14.616Z,26.30
2022-07-25T19:33:42.622Z,26.26
2022-07-25T19:36:10.432Z,26.22
2022-07-25T19:38:37.945Z,26.21
2022-07-25T19:41:05.648Z,26.18
2022-07-25T19:43:33.003Z,26.15
2022-07-25T19:46:00.257Z,26.11
2022-07-25T19:48:27.919Z,26.07
2022-07-25T19:50:55.155Z,25.95
2022-07-25T19:53:26.812Z,25.91
2022-07-25T19:55:58.684Z,25.84
2022-07-25T19:58:26.007Z,25.79
2022-07-25T20:00:53.331Z,25.72
2022-07-25T20:03:23.366Z,25.67
2022-07-25T20:05:55.995Z,25.64
2022-07-25T20:08:23.461Z,25.54
2022-07-25T20:10:50.810Z,25.54
2022-07-25T20:13:18.157Z,25.55
2022-07-25T20:15:45.779Z,25.40
2022-07-25T20:18:19.130Z,25.37
2022-07-25T20:20:47.640Z,25.36
2022-07-25T20:23:14.952Z,25.30
2022-07-25T20:25:42.387Z,25.28
2022-07-25T20:28:10.178Z,25.19
2022-07-25T20:30:37.556Z,25.21
2022-07-25T20:33:05.491Z,25.20
2022-07-25T20:35:38.431Z,25.13
2022-07-25T20:38:09.341Z,25.10
2022-07-25T20:40:46.436Z,25.05
2022-07-25T20:43:16.571Z,25.00
2022-07-25T20:45:44.428Z,24.98
2022-07-25T20:48:11.709Z,24.93
2022-07-25T20:50:39.937Z,24.94
2022-07-25T20:53:08.554Z,24.87
2022-07-25T20:55:36.818Z,24.87
2022-07-25T20:58:05.054Z,24.80
2022-07-25T21:00:33.031Z,24.76
2022-07-25T21:03:01.040Z,24.73
2022-07-25T21:05:29.044Z,24.71
2022-07-25T21:07:57.092Z,24.69
2022-07-25T21:10:24.796Z,24.63
2022-07-25T21:12:52.364Z,24.59
2022-07-25T21:15:20.237Z,24.57
2022-07-25T21:17:47.509Z,24.56
2022-07-25T21:20:15.878Z,24.56
2022-07-25T21:22:44.655Z,24.52
2022-07-25T21:25:12.442Z,24.54
2022-07-25T21:27:44.645Z,24.50
2022-07-25T21:30:12.680Z,24.49
2022-07-25T21:32:41.208Z,24.47
2022-07-25T21:35:09.186Z,24.43
2022-07-25T21:37:36.928Z,24.46
2022-07-25T21:40:05.328Z,24.48
2022-07-25T21:42:32.626Z,24.43
2022-07-25T21:45:00.052Z,24.39
2022-07-25T21:47:27.259Z,24.37
2022-07-25T21:50:13.462Z,24.34
2022-07-25T21:52:50.653Z,24.32
2022-07-25T21:55:18.032Z,24.31
2022-07-25T21:57:45.205Z,24.29
2022-07-25T22:00:14.933Z,24.27
2022-07-25T22:02:44.880Z,24.27
2022-07-25T22:05:13.979Z,24.22
2022-07-25T22:07:43.432Z,24.21
2022-07-25T22:10:13.631Z,24.18
2022-07-25T22:12:42.176Z,24.19
2022-07-25T22:15:11.988Z,24.17
2022-07-25T22:17:48.249Z,24.20
2022-07-25T22:20:18.956Z,24.16
2022-07-25T22:22:48.513Z,24.09
2022-07-25T22:25:16.644Z,24.09
2022-07-25T22:27:44.539Z,24.06
2022-07-25T22:30:18.269Z,24.06
2022-07-25T22:32:50.661Z,24.01
2022-07-25T22:35:18.512Z,24.01
2022-07-25T22:37:46.367Z,24.02
2022-07-25T22:40:14.933Z,23.97
2022-07-25T22:42:42.397Z,23.95
2022-07-25T22:45:10.361Z,23.92
2022-07-25T22:47:37.863Z,23.90
2022-07-25T22:50:06.513Z,23.81
2022-07-25T22:52:35.168Z,23.78
2022-07-25T22:55:02.754Z,23.73
2022-07-25T22:57:29.987Z,23.72
2022-07-25T23:00:08.729Z,23.70
2022-07-25T23:02:36.111Z,23.67
2022-07-25T23:05:04.905Z,23.66
2022-07-25T23:07:34.147Z,23.69
2022-07-25T23:10:02.379Z,23.67
2022-07-25T23:12:29.665Z,23.62
2022-07-25T23:14:57.129Z,23.58
2022-07-25T23:17:24.905Z,23.57
2022-07-25T23:19:55.113Z,23.57
2022-07-25T23:22:26.096Z,23.60
2022-07-25T23:24:53.530Z,23.59
2022-07-25T23:27:20.985Z,23.62
2022-07-25T23:29:48.974Z,23.61
2022-07-25T23:32:16.296Z,23.61
2022-07-25T23:34:43.882Z,23.58
2022-07-25T23:37:11.768Z,23.60
2022-07-25T23:39:39.079Z,23.59
2022-07-25T23:42:06.539Z,23.60
2022-07-25T23:44:34.184Z,23.51
2022-07-25T23:47:04.406Z,23.46
2022-07-25T23:49:35.551Z,23.46
2022-07-25T23:52:02.833Z,23.43
2022-07-25T23:54:30.126Z,23.39
2022-07-25T23:56:57.545Z,23.34
2022-07-25T23:59:24.735Z,23.32
